sensor_id;sensor_type;location;lat;lon;timestamp;P1;durP1;ratioP1;P2;durP2;ratioP2
5339;SDS011;2692;48.848;8.924;2023-10-08T00:00:23;2.80;;;1.30;;
5339;SDS011;2692;48.848;8.924;2023-10-08T00:03:10;3.70;;;1.40;;
5339;SDS011;2692;48.848;8.924;2023-10-08T00:05:36;5.57;;;1.80;;
5339;SDS011;2692;48.848;8.924;2023-10-08T00:08:02;3.93;;;1.50;;
5339;SDS011;2692;48.848;8.924;2023-10-08T00:10:29;5.43;;;1.97;;
5339;SDS011;2692;48.848;8.924;2023-10-08T00:12:59;2.83;;;1.13;;
5339;SDS011;2692;48.848;8.924;2023-10-08T00:15:24;11.83;;;1.33;;
5339;SDS011;2692;48.848;8.924;2023-10-08T00:17:50;4.77;;;1.63;;
5339;SDS011;2692;48.848;8.924;2023-10-08T00:20:18;2.07;;;1.07;;
5339;SDS011;2692;48.848;8.924;2023-10-08T00:22:50;5.30;;;1.33;;
5339;SDS011;2692;48.848;8.924;2023-10-08T00:25:19;5.03;;;1.47;;
5339;SDS011;2692;48.848;8.924;2023-10-08T00:27:45;2.53;;;1.67;;
5339;SDS011;2692;48.848;8.924;2023-10-08T00:30:11;4.90;;;2.03;;
5339;SDS011;2692;48.848;8.924;2023-10-08T00:32:42;2.13;;;1.43;;
5339;SDS011;2692;48.848;8.924;2023-10-08T00:35:08;3.70;;;1.73;;
5339;SDS011;2692;48.848;8.924;2023-10-08T00:37:38;5.53;;;1.20;;
5339;SDS011;2692;48.848;8.924;2023-10-08T00:40:06;3.50;;;1.60;;
5339;SDS011;2692;48.848;8.924;2023-10-08T00:42:37;2.53;;;1.60;;
5339;SDS011;2692;48.848;8.924;2023-10-08T00:45:10;3.30;;;1.87;;
5339;SDS011;2692;48.848;8.924;2023-10-08T00:47:38;3.20;;;1.10;;
5339;SDS011;2692;48.848;8.924;2023-10-08T00:50:08;1.13;;;0.77;;
5339;SDS011;2692;48.848;8.924;2023-10-08T00:52:35;1.43;;;1.00;;
5339;SDS011;2692;48.848;8.924;2023-10-08T00:55:10;4.13;;;1.93;;
5339;SDS011;2692;48.848;8.924;2023-10-08T00:57:45;2.07;;;1.10;;
5339;SDS011;2692;48.848;8.924;2023-10-08T01:00:13;1.93;;;1.30;;
5339;SDS011;2692;48.848;8.924;2023-10-08T01:02:46;1.63;;;0.97;;
5339;SDS011;2692;48.848;8.924;2023-10-08T01:05:14;2.83;;;1.30;;
5339;SDS011;2692;48.848;8.924;2023-10-08T01:07:51;1.97;;;0.93;;
5339;SDS011;2692;48.848;8.924;2023-10-08T01:10:17;2.30;;;1.03;;
5339;SDS011;2692;48.848;8.924;2023-10-08T01:12:46;3.33;;;1.50;;
5339;SDS011;2692;48.848;8.924;2023-10-08T01:15:29;13.33;;;1.83;;
5339;SDS011;2692;48.848;8.924;2023-10-08T01:17:55;2.67;;;1.60;;
5339;SDS011;2692;48.848;8.924;2023-10-08T01:20:39;1.97;;;0.90;;
5339;SDS011;2692;48.848;8.924;2023-10-08T01:23:24;6.30;;;1.63;;
5339;SDS011;2692;48.848;8.924;2023-10-08T01:25:52;1.70;;;0.97;;
5339;SDS011;2692;48.848;8.924;2023-10-08T01:28:22;2.20;;;1.03;;
5339;SDS011;2692;48.848;8.924;2023-10-08T01:30:52;4.50;;;1.37;;
5339;SDS011;2692;48.848;8.924;2023-10-08T01:33:19;2.43;;;1.40;;
5339;SDS011;2692;48.848;8.924;2023-10-08T01:35:46;14.13;;;1.37;;
5339;SDS011;2692;48.848;8.924;2023-10-08T01:38:13;2.53;;;1.10;;
5339;SDS011;2692;48.848;8.924;2023-10-08T01:40:42;1.87;;;1.17;;
5339;SDS011;2692;48.848;8.924;2023-10-08T01:43:08;1.93;;;1.10;;
5339;SDS011;2692;48.848;8.924;2023-10-08T01:45:35;3.07;;;1.00;;
5339;SDS011;2692;48.848;8.924;2023-10-08T01:48:04;2.03;;;1.07;;
5339;SDS011;2692;48.848;8.924;2023-10-08T01:50:30;1.67;;;1.07;;
5339;SDS011;2692;48.848;8.924;2023-10-08T01:52:59;3.03;;;1.27;;
5339;SDS011;2692;48.848;8.924;2023-10-08T01:55:25;3.50;;;1.73;;
5339;SDS011;2692;48.848;8.924;2023-10-08T01:57:51;2.17;;;1.20;;
5339;SDS011;2692;48.848;8.924;2023-10-08T02:00:17;3.40;;;1.37;;
5339;SDS011;2692;48.848;8.924;2023-10-08T02:02:46;1.90;;;1.17;;
5339;SDS011;2692;48.848;8.924;2023-10-08T02:05:11;2.60;;;1.33;;
5339;SDS011;2692;48.848;8.924;2023-10-08T02:07:40;2.30;;;1.23;;
5339;SDS011;2692;48.848;8.924;2023-10-08T02:10:05;3.37;;;1.43;;
5339;SDS011;2692;48.848;8.924;2023-10-08T02:12:32;4.40;;;1.70;;
5339;SDS011;2692;48.848;8.924;2023-10-08T02:14:57;1.57;;;0.83;;
5339;SDS011;2692;48.848;8.924;2023-10-08T02:17:22;2.37;;;1.63;;
5339;SDS011;2692;48.848;8.924;2023-10-08T02:19:48;3.13;;;1.27;;
5339;SDS011;2692;48.848;8.924;2023-10-08T02:22:13;1.60;;;1.03;;
5339;SDS011;2692;48.848;8.924;2023-10-08T02:24:39;2.97;;;1.60;;
5339;SDS011;2692;48.848;8.924;2023-10-08T02:27:05;2.43;;;1.40;;
5339;SDS011;2692;48.848;8.924;2023-10-08T02:29:31;4.83;;;0.83;;
5339;SDS011;2692;48.848;8.924;2023-10-08T02:31:57;1.90;;;1.13;;
5339;SDS011;2692;48.848;8.924;2023-10-08T02:34:22;2.30;;;1.00;;
5339;SDS011;2692;48.848;8.924;2023-10-08T02:36:48;2.13;;;0.90;;
5339;SDS011;2692;48.848;8.924;2023-10-08T02:39:13;4.80;;;1.70;;
5339;SDS011;2692;48.848;8.924;2023-10-08T02:41:51;4.63;;;1.47;;
5339;SDS011;2692;48.848;8.924;2023-10-08T02:44:18;2.20;;;1.20;;
5339;SDS011;2692;48.848;8.924;2023-10-08T02:46:44;10.10;;;1.00;;
5339;SDS011;2692;48.848;8.924;2023-10-08T02:49:12;4.90;;;1.53;;
5339;SDS011;2692;48.848;8.924;2023-10-08T02:51:48;2.00;;;1.17;;
5339;SDS011;2692;48.848;8.924;2023-10-08T02:54:16;3.37;;;1.07;;
5339;SDS011;2692;48.848;8.924;2023-10-08T02:56:49;1.53;;;0.97;;
5339;SDS011;2692;48.848;8.924;2023-10-08T02:59:24;1.23;;;0.67;;
5339;SDS011;2692;48.848;8.924;2023-10-08T03:01:53;1.77;;;0.80;;
5339;SDS011;2692;48.848;8.924;2023-10-08T03:04:21;1.50;;;0.83;;
5339;SDS011;2692;48.848;8.924;2023-10-08T03:06:48;1.73;;;0.70;;
5339;SDS011;2692;48.848;8.924;2023-10-08T03:09:20;1.30;;;0.90;;
5339;SDS011;2692;48.848;8.924;2023-10-08T03:11:48;2.60;;;1.37;;
5339;SDS011;2692;48.848;8.924;2023-10-08T03:14:17;6.30;;;1.10;;
5339;SDS011;2692;48.848;8.924;2023-10-08T03:16:51;11.93;;;1.40;;
5339;SDS011;2692;48.848;8.924;2023-10-08T03:19:18;1.30;;;0.60;;
5339;SDS011;2692;48.848;8.924;2023-10-08T03:21:48;1.20;;;0.63;;
5339;SDS011;2692;48.848;8.924;2023-10-08T03:24:16;2.10;;;1.10;;
5339;SDS011;2692;48.848;8.924;2023-10-08T03:26:58;1.30;;;0.90;;
5339;SDS011;2692;48.848;8.924;2023-10-08T03:29:53;1.53;;;0.67;;
5339;SDS011;2692;48.848;8.924;2023-10-08T03:32:19;2.70;;;1.00;;
5339;SDS011;2692;48.848;8.924;2023-10-08T03:34:51;1.33;;;0.77;;
5339;SDS011;2692;48.848;8.924;2023-10-08T03:37:20;1.50;;;1.00;;
5339;SDS011;2692;48.848;8.924;2023-10-08T03:39:54;2.40;;;0.97;;
5339;SDS011;2692;48.848;8.924;2023-10-08T03:42:28;2.50;;;1.40;;
5339;SDS011;2692;48.848;8.924;2023-10-08T03:45:06;2.13;;;0.93;;
5339;SDS011;2692;48.848;8.924;2023-10-08T03:47:41;1.57;;;0.93;;
5339;SDS011;2692;48.848;8.924;2023-10-08T03:50:18;3.47;;;0.70;;
5339;SDS011;2692;48.848;8.924;2023-10-08T03:52:43;2.80;;;0.97;;
5339;SDS011;2692;48.848;8.924;2023-10-08T03:55:09;4.00;;;1.57;;
5339;SDS011;2692;48.848;8.924;2023-10-08T03:57:37;3.70;;;1.20;;
5339;SDS011;2692;48.848;8.924;2023-10-08T04:00:12;1.80;;;0.93;;
5339;SDS011;2692;48.848;8.924;2023-10-08T04:02:41;2.93;;;1.20;;
5339;SDS011;2692;48.848;8.924;2023-10-08T04:05:11;3.03;;;1.00;;
5339;SDS011;2692;48.848;8.924;2023-10-08T04:07:52;1.57;;;1.00;;
5339;SDS011;2692;48.848;8.924;2023-10-08T04:10:24;2.23;;;0.97;;
5339;SDS011;2692;48.848;8.924;2023-10-08T04:13:02;1.50;;;0.90;;
5339;SDS011;2692;48.848;8.924;2023-10-08T04:15:28;1.60;;;0.90;;
5339;SDS011;2692;48.848;8.924;2023-10-08T04:17:53;1.30;;;0.80;;
5339;SDS011;2692;48.848;8.924;2023-10-08T04:20:18;2.87;;;1.03;;
5339;SDS011;2692;48.848;8.924;2023-10-08T04:23:02;3.40;;;1.30;;
5339;SDS011;2692;48.848;8.924;2023-10-08T04:25:30;1.60;;;0.83;;
5339;SDS011;2692;48.848;8.924;2023-10-08T04:27:59;3.23;;;1.13;;
5339;SDS011;2692;48.848;8.924;2023-10-08T04:33:00;1.87;;;0.73;;
5339;SDS011;2692;48.848;8.924;2023-10-08T04:35:35;1.20;;;0.80;;
5339;SDS011;2692;48.848;8.924;2023-10-08T04:38:13;1.80;;;1.13;;
5339;SDS011;2692;48.848;8.924;2023-10-08T04:40:53;2.50;;;1.03;;
5339;SDS011;2692;48.848;8.924;2023-10-08T04:43:19;1.57;;;0.93;;
5339;SDS011;2692;48.848;8.924;2023-10-08T04:45:53;3.40;;;1.17;;
5339;SDS011;2692;48.848;8.924;2023-10-08T04:48:27;1.00;;;0.63;;
5339;SDS011;2692;48.848;8.924;2023-10-08T04:50:56;3.43;;;1.60;;
5339;SDS011;2692;48.848;8.924;2023-10-08T04:53:28;4.27;;;1.53;;
5339;SDS011;2692;48.848;8.924;2023-10-08T04:56:01;1.30;;;0.73;;
5339;SDS011;2692;48.848;8.924;2023-10-08T04:58:34;2.17;;;0.87;;
5339;SDS011;2692;48.848;8.924;2023-10-08T05:01:01;4.20;;;1.37;;
5339;SDS011;2692;48.848;8.924;2023-10-08T05:03:45;1.00;;;0.53;;
5339;SDS011;2692;48.848;8.924;2023-10-08T05:09:04;1.70;;;0.93;;
5339;SDS011;2692;48.848;8.924;2023-10-08T05:11:47;1.97;;;1.43;;
5339;SDS011;2692;48.848;8.924;2023-10-08T05:14:15;3.23;;;1.13;;
5339;SDS011;2692;48.848;8.924;2023-10-08T05:16:54;2.40;;;1.00;;
5339;SDS011;2692;48.848;8.924;2023-10-08T05:19:31;5.50;;;0.70;;
5339;SDS011;2692;48.848;8.924;2023-10-08T05:22:14;3.00;;;1.13;;
5339;SDS011;2692;48.848;8.924;2023-10-08T05:25:03;1.20;;;0.67;;
5339;SDS011;2692;48.848;8.924;2023-10-08T05:27:32;3.20;;;1.10;;
5339;SDS011;2692;48.848;8.924;2023-10-08T05:30:11;1.27;;;0.70;;
5339;SDS011;2692;48.848;8.924;2023-10-08T05:32:41;1.60;;;0.47;;
5339;SDS011;2692;48.848;8.924;2023-10-08T05:35:25;3.23;;;1.10;;
5339;SDS011;2692;48.848;8.924;2023-10-08T05:38:03;1.63;;;0.90;;
5339;SDS011;2692;48.848;8.924;2023-10-08T05:40:41;1.00;;;0.60;;
5339;SDS011;2692;48.848;8.924;2023-10-08T05:46:07;2.40;;;0.93;;
5339;SDS011;2692;48.848;8.924;2023-10-08T05:48:50;3.23;;;1.07;;
5339;SDS011;2692;48.848;8.924;2023-10-08T05:51:46;2.80;;;0.70;;
5339;SDS011;2692;48.848;8.924;2023-10-08T05:54:21;3.43;;;1.00;;
5339;SDS011;2692;48.848;8.924;2023-10-08T05:56:57;1.83;;;1.10;;
5339;SDS011;2692;48.848;8.924;2023-10-08T05:59:34;1.20;;;0.63;;
5339;SDS011;2692;48.848;8.924;2023-10-08T06:02:19;1.20;;;0.60;;
5339;SDS011;2692;48.848;8.924;2023-10-08T06:05:00;1.87;;;1.10;;
5339;SDS011;2692;48.848;8.924;2023-10-08T06:07:43;1.00;;;0.60;;
5339;SDS011;2692;48.848;8.924;2023-10-08T06:10:30;1.50;;;0.80;;
5339;SDS011;2692;48.848;8.924;2023-10-08T06:13:04;2.03;;;0.87;;
5339;SDS011;2692;48.848;8.924;2023-10-08T06:15:49;1.83;;;1.00;;
5339;SDS011;2692;48.848;8.924;2023-10-08T06:18:24;3.83;;;1.50;;
5339;SDS011;2692;48.848;8.924;2023-10-08T06:20:53;3.73;;;1.00;;
5339;SDS011;2692;48.848;8.924;2023-10-08T06:23:23;1.63;;;0.93;;
5339;SDS011;2692;48.848;8.924;2023-10-08T06:25:50;1.60;;;1.00;;
5339;SDS011;2692;48.848;8.924;2023-10-08T06:28:23;1.10;;;0.50;;
5339;SDS011;2692;48.848;8.924;2023-10-08T06:30:53;3.20;;;1.30;;
5339;SDS011;2692;48.848;8.924;2023-10-08T06:33:20;3.00;;;0.87;;
5339;SDS011;2692;48.848;8.924;2023-10-08T06:35:47;1.53;;;0.80;;
5339;SDS011;2692;48.848;8.924;2023-10-08T06:38:27;2.67;;;1.17;;
5339;SDS011;2692;48.848;8.924;2023-10-08T06:40:55;2.80;;;1.10;;
5339;SDS011;2692;48.848;8.924;2023-10-08T06:43:25;2.20;;;1.00;;
5339;SDS011;2692;48.848;8.924;2023-10-08T06:45:50;4.30;;;1.13;;
5339;SDS011;2692;48.848;8.924;2023-10-08T06:48:22;2.63;;;1.17;;
5339;SDS011;2692;48.848;8.924;2023-10-08T06:50:48;1.77;;;1.07;;
5339;SDS011;2692;48.848;8.924;2023-10-08T06:53:15;3.53;;;1.00;;
5339;SDS011;2692;48.848;8.924;2023-10-08T06:55:43;2.97;;;1.80;;
5339;SDS011;2692;48.848;8.924;2023-10-08T06:58:13;1.90;;;1.30;;
5339;SDS011;2692;48.848;8.924;2023-10-08T07:00:40;2.03;;;1.33;;
5339;SDS011;2692;48.848;8.924;2023-10-08T07:03:11;2.50;;;1.60;;
5339;SDS011;2692;48.848;8.924;2023-10-08T07:05:39;4.70;;;1.67;;
5339;SDS011;2692;48.848;8.924;2023-10-08T07:08:09;3.90;;;1.77;;
5339;SDS011;2692;48.848;8.924;2023-10-08T07:10:38;4.73;;;2.20;;
5339;SDS011;2692;48.848;8.924;2023-10-08T07:13:05;2.87;;;1.40;;
5339;SDS011;2692;48.848;8.924;2023-10-08T07:15:33;3.50;;;1.80;;
5339;SDS011;2692;48.848;8.924;2023-10-08T07:18:03;3.07;;;1.93;;
5339;SDS011;2692;48.848;8.924;2023-10-08T07:20:38;2.53;;;1.80;;
5339;SDS011;2692;48.848;8.924;2023-10-08T07:23:10;8.30;;;1.30;;
5339;SDS011;2692;48.848;8.924;2023-10-08T07:25:58;3.87;;;2.13;;
5339;SDS011;2692;48.848;8.924;2023-10-08T07:28:30;2.93;;;1.73;;
5339;SDS011;2692;48.848;8.924;2023-10-08T07:30:55;3.20;;;1.60;;
5339;SDS011;2692;48.848;8.924;2023-10-08T07:33:22;6.83;;;1.63;;
5339;SDS011;2692;48.848;8.924;2023-10-08T07:35:50;3.43;;;1.50;;
5339;SDS011;2692;48.848;8.924;2023-10-08T07:38:41;5.87;;;1.73;;
5339;SDS011;2692;48.848;8.924;2023-10-08T07:41:07;2.73;;;0.97;;
5339;SDS011;2692;48.848;8.924;2023-10-08T07:43:34;4.30;;;1.60;;
5339;SDS011;2692;48.848;8.924;2023-10-08T07:46:00;2.60;;;1.60;;
5339;SDS011;2692;48.848;8.924;2023-10-08T07:48:25;8.27;;;2.07;;
5339;SDS011;2692;48.848;8.924;2023-10-08T07:50:54;2.20;;;1.27;;
5339;SDS011;2692;48.848;8.924;2023-10-08T07:53:20;7.07;;;1.67;;
5339;SDS011;2692;48.848;8.924;2023-10-08T07:55:46;3.73;;;1.40;;
5339;SDS011;2692;48.848;8.924;2023-10-08T07:58:13;3.20;;;1.57;;
5339;SDS011;2692;48.848;8.924;2023-10-08T08:00:42;6.03;;;1.47;;
5339;SDS011;2692;48.848;8.924;2023-10-08T08:03:16;4.03;;;2.10;;
5339;SDS011;2692;48.848;8.924;2023-10-08T08:05:41;3.77;;;1.80;;
5339;SDS011;2692;48.848;8.924;2023-10-08T08:08:09;2.87;;;2.00;;
5339;SDS011;2692;48.848;8.924;2023-10-08T08:10:34;4.20;;;1.50;;
5339;SDS011;2692;48.848;8.924;2023-10-08T08:13:02;2.80;;;1.30;;
5339;SDS011;2692;48.848;8.924;2023-10-08T08:15:31;3.50;;;1.67;;
5339;SDS011;2692;48.848;8.924;2023-10-08T08:17:58;3.20;;;1.97;;
5339;SDS011;2692;48.848;8.924;2023-10-08T08:20:23;3.30;;;2.13;;
5339;SDS011;2692;48.848;8.924;2023-10-08T08:22:59;8.07;;;2.53;;
5339;SDS011;2692;48.848;8.924;2023-10-08T08:25:31;4.43;;;1.67;;
5339;SDS011;2692;48.848;8.924;2023-10-08T08:28:07;2.17;;;1.40;;
5339;SDS011;2692;48.848;8.924;2023-10-08T08:30:41;3.67;;;1.50;;
5339;SDS011;2692;48.848;8.924;2023-10-08T08:33:09;6.83;;;1.73;;
5339;SDS011;2692;48.848;8.924;2023-10-08T08:35:35;3.67;;;2.03;;
5339;SDS011;2692;48.848;8.924;2023-10-08T08:38:00;5.27;;;1.97;;
5339;SDS011;2692;48.848;8.924;2023-10-08T08:40:25;5.20;;;2.10;;
5339;SDS011;2692;48.848;8.924;2023-10-08T08:42:52;10.63;;;1.53;;
5339;SDS011;2692;48.848;8.924;2023-10-08T08:45:21;2.73;;;1.40;;
5339;SDS011;2692;48.848;8.924;2023-10-08T08:47:47;4.00;;;1.97;;
5339;SDS011;2692;48.848;8.924;2023-10-08T08:50:12;5.47;;;2.30;;
5339;SDS011;2692;48.848;8.924;2023-10-08T08:52:38;2.93;;;1.33;;
5339;SDS011;2692;48.848;8.924;2023-10-08T08:55:04;15.63;;;2.50;;
5339;SDS011;2692;48.848;8.924;2023-10-08T08:57:43;4.47;;;1.60;;
5339;SDS011;2692;48.848;8.924;2023-10-08T09:00:11;6.20;;;1.70;;
5339;SDS011;2692;48.848;8.924;2023-10-08T09:02:40;3.10;;;1.60;;
5339;SDS011;2692;48.848;8.924;2023-10-08T09:05:05;2.67;;;1.33;;
5339;SDS011;2692;48.848;8.924;2023-10-08T09:07:56;4.17;;;1.40;;
5339;SDS011;2692;48.848;8.924;2023-10-08T09:10:23;4.00;;;1.80;;
5339;SDS011;2692;48.848;8.924;2023-10-08T09:12:51;2.20;;;1.40;;
5339;SDS011;2692;48.848;8.924;2023-10-08T09:15:17;5.20;;;1.43;;
5339;SDS011;2692;48.848;8.924;2023-10-08T09:17:43;11.10;;;2.40;;
5339;SDS011;2692;48.848;8.924;2023-10-08T09:20:08;3.07;;;1.10;;
5339;SDS011;2692;48.848;8.924;2023-10-08T09:22:34;2.47;;;1.40;;
5339;SDS011;2692;48.848;8.924;2023-10-08T09:25:00;2.07;;;1.30;;
5339;SDS011;2692;48.848;8.924;2023-10-08T09:27:30;6.10;;;1.97;;
5339;SDS011;2692;48.848;8.924;2023-10-08T09:29:55;6.40;;;1.80;;
5339;SDS011;2692;48.848;8.924;2023-10-08T09:32:21;2.50;;;1.37;;
5339;SDS011;2692;48.848;8.924;2023-10-08T09:34:49;4.23;;;1.07;;
5339;SDS011;2692;48.848;8.924;2023-10-08T09:37:17;3.80;;;1.60;;
5339;SDS011;2692;48.848;8.924;2023-10-08T09:39:47;5.50;;;1.60;;
5339;SDS011;2692;48.848;8.924;2023-10-08T09:42:14;5.90;;;1.93;;
5339;SDS011;2692;48.848;8.924;2023-10-08T09:44:39;4.63;;;1.73;;
5339;SDS011;2692;48.848;8.924;2023-10-08T09:47:08;2.90;;;1.40;;
5339;SDS011;2692;48.848;8.924;2023-10-08T09:49:40;2.90;;;1.70;;
5339;SDS011;2692;48.848;8.924;2023-10-08T09:52:07;2.73;;;1.50;;
5339;SDS011;2692;48.848;8.924;2023-10-08T09:54:37;2.93;;;1.30;;
5339;SDS011;2692;48.848;8.924;2023-10-08T09:57:18;8.03;;;1.90;;
5339;SDS011;2692;48.848;8.924;2023-10-08T09:59:45;6.20;;;1.73;;
5339;SDS011;2692;48.848;8.924;2023-10-08T10:02:12;4.67;;;1.20;;
5339;SDS011;2692;48.848;8.924;2023-10-08T10:04:43;7.53;;;2.30;;
5339;SDS011;2692;48.848;8.924;2023-10-08T10:07:10;7.50;;;1.93;;
5339;SDS011;2692;48.848;8.924;2023-10-08T10:09:38;3.57;;;1.67;;
5339;SDS011;2692;48.848;8.924;2023-10-08T10:12:05;2.33;;;1.03;;
5339;SDS011;2692;48.848;8.924;2023-10-08T10:14:56;16.03;;;1.80;;
5339;SDS011;2692;48.848;8.924;2023-10-08T10:17:21;7.33;;;1.90;;
5339;SDS011;2692;48.848;8.924;2023-10-08T10:19:56;14.93;;;2.27;;
5339;SDS011;2692;48.848;8.924;2023-10-08T10:22:29;6.53;;;2.37;;
5339;SDS011;2692;48.848;8.924;2023-10-08T10:24:56;4.40;;;1.83;;
5339;SDS011;2692;48.848;8.924;2023-10-08T10:27:22;5.50;;;1.23;;
5339;SDS011;2692;48.848;8.924;2023-10-08T10:29:48;7.33;;;2.50;;
5339;SDS011;2692;48.848;8.924;2023-10-08T10:32:14;7.80;;;1.80;;
5339;SDS011;2692;48.848;8.924;2023-10-08T10:34:40;5.37;;;2.00;;
5339;SDS011;2692;48.848;8.924;2023-10-08T10:37:07;4.40;;;2.00;;
5339;SDS011;2692;48.848;8.924;2023-10-08T10:39:50;5.43;;;1.83;;
5339;SDS011;2692;48.848;8.924;2023-10-08T10:42:20;3.40;;;1.73;;
5339;SDS011;2692;48.848;8.924;2023-10-08T10:44:46;5.43;;;2.10;;
5339;SDS011;2692;48.848;8.924;2023-10-08T10:47:14;3.50;;;1.83;;
5339;SDS011;2692;48.848;8.924;2023-10-08T10:49:40;5.13;;;2.10;;
5339;SDS011;2692;48.848;8.924;2023-10-08T10:52:25;5.30;;;2.17;;
5339;SDS011;2692;48.848;8.924;2023-10-08T10:55:09;8.30;;;2.13;;
5339;SDS011;2692;48.848;8.924;2023-10-08T10:57:49;8.23;;;2.13;;
5339;SDS011;2692;48.848;8.924;2023-10-08T11:00:36;12.13;;;2.60;;
5339;SDS011;2692;48.848;8.924;2023-10-08T11:03:02;6.80;;;1.80;;
5339;SDS011;2692;48.848;8.924;2023-10-08T11:05:29;6.47;;;2.40;;
5339;SDS011;2692;48.848;8.924;2023-10-08T11:07:56;5.70;;;2.20;;
5339;SDS011;2692;48.848;8.924;2023-10-08T11:10:32;9.20;;;2.57;;
5339;SDS011;2692;48.848;8.924;2023-10-08T11:12:58;6.87;;;2.27;;
5339;SDS011;2692;48.848;8.924;2023-10-08T11:15:29;6.53;;;2.50;;
5339;SDS011;2692;48.848;8.924;2023-10-08T11:18:14;5.20;;;2.30;;
5339;SDS011;2692;48.848;8.924;2023-10-08T11:20:40;6.80;;;2.50;;
5339;SDS011;2692;48.848;8.924;2023-10-08T11:23:09;5.03;;;2.40;;
5339;SDS011;2692;48.848;8.924;2023-10-08T11:25:56;5.60;;;2.30;;
5339;SDS011;2692;48.848;8.924;2023-10-08T11:28:27;9.40;;;3.30;;
5339;SDS011;2692;48.848;8.924;2023-10-08T11:30:52;7.40;;;2.13;;
5339;SDS011;2692;48.848;8.924;2023-10-08T11:33:18;4.07;;;2.23;;
5339;SDS011;2692;48.848;8.924;2023-10-08T11:35:56;14.63;;;2.60;;
5339;SDS011;2692;48.848;8.924;2023-10-08T11:38:38;3.77;;;1.90;;
5339;SDS011;2692;48.848;8.924;2023-10-08T11:41:10;24.70;;;3.23;;
5339;SDS011;2692;48.848;8.924;2023-10-08T11:43:38;6.90;;;2.40;;
5339;SDS011;2692;48.848;8.924;2023-10-08T11:46:04;3.20;;;1.90;;
5339;SDS011;2692;48.848;8.924;2023-10-08T11:48:30;3.03;;;1.67;;
5339;SDS011;2692;48.848;8.924;2023-10-08T11:50:57;5.73;;;2.30;;
5339;SDS011;2692;48.848;8.924;2023-10-08T11:53:22;13.23;;;2.20;;
5339;SDS011;2692;48.848;8.924;2023-10-08T11:55:49;10.10;;;2.50;;
5339;SDS011;2692;48.848;8.924;2023-10-08T11:58:20;3.70;;;1.90;;
5339;SDS011;2692;48.848;8.924;2023-10-08T12:00:51;8.20;;;2.60;;
5339;SDS011;2692;48.848;8.924;2023-10-08T12:03:17;9.37;;;2.10;;
5339;SDS011;2692;48.848;8.924;2023-10-08T12:05:50;11.83;;;2.47;;
5339;SDS011;2692;48.848;8.924;2023-10-08T12:08:23;5.30;;;2.40;;
5339;SDS011;2692;48.848;8.924;2023-10-08T12:10:50;8.17;;;2.57;;
5339;SDS011;2692;48.848;8.924;2023-10-08T12:13:19;6.13;;;2.33;;
5339;SDS011;2692;48.848;8.924;2023-10-08T12:15:49;4.67;;;2.20;;
5339;SDS011;2692;48.848;8.924;2023-10-08T12:18:15;13.20;;;2.93;;
5339;SDS011;2692;48.848;8.924;2023-10-08T12:20:49;7.00;;;2.13;;
5339;SDS011;2692;48.848;8.924;2023-10-08T12:23:15;5.83;;;2.00;;
5339;SDS011;2692;48.848;8.924;2023-10-08T12:25:54;14.90;;;2.93;;
5339;SDS011;2692;48.848;8.924;2023-10-08T12:28:25;4.60;;;2.10;;
5339;SDS011;2692;48.848;8.924;2023-10-08T12:30:51;4.93;;;2.10;;
5339;SDS011;2692;48.848;8.924;2023-10-08T12:33:21;7.50;;;2.20;;
5339;SDS011;2692;48.848;8.924;2023-10-08T12:35:49;4.57;;;1.83;;
5339;SDS011;2692;48.848;8.924;2023-10-08T12:38:18;5.20;;;2.40;;
5339;SDS011;2692;48.848;8.924;2023-10-08T12:40:45;9.20;;;2.77;;
5339;SDS011;2692;48.848;8.924;2023-10-08T12:43:18;8.43;;;2.63;;
5339;SDS011;2692;48.848;8.924;2023-10-08T12:45:47;6.03;;;2.37;;
5339;SDS011;2692;48.848;8.924;2023-10-08T12:48:21;7.90;;;2.53;;
5339;SDS011;2692;48.848;8.924;2023-10-08T12:50:49;8.43;;;2.67;;
5339;SDS011;2692;48.848;8.924;2023-10-08T12:53:21;9.30;;;2.40;;
5339;SDS011;2692;48.848;8.924;2023-10-08T12:55:52;4.50;;;2.17;;
5339;SDS011;2692;48.848;8.924;2023-10-08T12:58:19;8.10;;;2.80;;
5339;SDS011;2692;48.848;8.924;2023-10-08T13:00:49;2.90;;;1.70;;
5339;SDS011;2692;48.848;8.924;2023-10-08T13:03:22;5.53;;;2.43;;
5339;SDS011;2692;48.848;8.924;2023-10-08T13:05:48;8.57;;;2.70;;
5339;SDS011;2692;48.848;8.924;2023-10-08T13:08:20;4.50;;;1.90;;
5339;SDS011;2692;48.848;8.924;2023-10-08T13:10:46;11.90;;;3.03;;
5339;SDS011;2692;48.848;8.924;2023-10-08T13:13:12;5.80;;;2.17;;
5339;SDS011;2692;48.848;8.924;2023-10-08T13:15:37;3.87;;;1.80;;
5339;SDS011;2692;48.848;8.924;2023-10-08T13:18:03;8.97;;;2.90;;
5339;SDS011;2692;48.848;8.924;2023-10-08T13:20:29;6.37;;;2.50;;
5339;SDS011;2692;48.848;8.924;2023-10-08T13:22:58;3.93;;;1.77;;
5339;SDS011;2692;48.848;8.924;2023-10-08T13:25:24;7.17;;;1.90;;
5339;SDS011;2692;48.848;8.924;2023-10-08T13:27:51;4.10;;;2.03;;
5339;SDS011;2692;48.848;8.924;2023-10-08T13:30:16;5.80;;;2.20;;
5339;SDS011;2692;48.848;8.924;2023-10-08T13:32:42;6.30;;;2.53;;
5339;SDS011;2692;48.848;8.924;2023-10-08T13:35:07;7.93;;;2.20;;
5339;SDS011;2692;48.848;8.924;2023-10-08T13:37:33;10.60;;;1.83;;
5339;SDS011;2692;48.848;8.924;2023-10-08T13:40:00;6.87;;;2.67;;
5339;SDS011;2692;48.848;8.924;2023-10-08T13:42:25;6.43;;;2.60;;
5339;SDS011;2692;48.848;8.924;2023-10-08T13:44:52;6.53;;;2.60;;
5339;SDS011;2692;48.848;8.924;2023-10-08T13:47:18;5.37;;;2.20;;
5339;SDS011;2692;48.848;8.924;2023-10-08T13:49:44;12.23;;;2.07;;
5339;SDS011;2692;48.848;8.924;2023-10-08T13:52:09;13.63;;;2.63;;
5339;SDS011;2692;48.848;8.924;2023-10-08T13:54:35;5.60;;;2.40;;
5339;SDS011;2692;48.848;8.924;2023-10-08T13:57:06;5.20;;;2.33;;
5339;SDS011;2692;48.848;8.924;2023-10-08T13:59:33;4.03;;;2.10;;
5339;SDS011;2692;48.848;8.924;2023-10-08T14:01:59;10.03;;;2.17;;
5339;SDS011;2692;48.848;8.924;2023-10-08T14:04:26;12.20;;;1.83;;
5339;SDS011;2692;48.848;8.924;2023-10-08T14:06:55;4.00;;;2.60;;
5339;SDS011;2692;48.848;8.924;2023-10-08T14:09:23;6.40;;;2.10;;
5339;SDS011;2692;48.848;8.924;2023-10-08T14:11:56;6.00;;;2.53;;
5339;SDS011;2692;48.848;8.924;2023-10-08T14:14:21;11.27;;;2.43;;
5339;SDS011;2692;48.848;8.924;2023-10-08T14:16:49;27.93;;;2.83;;
5339;SDS011;2692;48.848;8.924;2023-10-08T14:19:17;6.07;;;2.40;;
5339;SDS011;2692;48.848;8.924;2023-10-08T14:21:43;5.80;;;1.43;;
5339;SDS011;2692;48.848;8.924;2023-10-08T14:24:18;14.30;;;2.90;;
5339;SDS011;2692;48.848;8.924;2023-10-08T14:26:43;6.90;;;2.43;;
5339;SDS011;2692;48.848;8.924;2023-10-08T14:29:08;5.07;;;2.10;;
5339;SDS011;2692;48.848;8.924;2023-10-08T14:31:39;4.50;;;2.40;;
5339;SDS011;2692;48.848;8.924;2023-10-08T14:34:07;6.40;;;1.90;;
5339;SDS011;2692;48.848;8.924;2023-10-08T14:36:41;5.20;;;2.23;;
5339;SDS011;2692;48.848;8.924;2023-10-08T14:39:25;6.47;;;2.53;;
5339;SDS011;2692;48.848;8.924;2023-10-08T14:42:09;6.17;;;2.10;;
5339;SDS011;2692;48.848;8.924;2023-10-08T14:44:53;16.23;;;2.53;;
5339;SDS011;2692;48.848;8.924;2023-10-08T14:47:19;3.57;;;1.70;;
5339;SDS011;2692;48.848;8.924;2023-10-08T14:49:44;5.07;;;2.37;;
5339;SDS011;2692;48.848;8.924;2023-10-08T14:52:10;5.73;;;1.93;;
5339;SDS011;2692;48.848;8.924;2023-10-08T14:54:36;8.83;;;1.90;;
5339;SDS011;2692;48.848;8.924;2023-10-08T14:57:02;13.07;;;1.73;;
5339;SDS011;2692;48.848;8.924;2023-10-08T14:59:28;2.93;;;1.80;;
5339;SDS011;2692;48.848;8.924;2023-10-08T15:01:55;5.90;;;2.50;;
5339;SDS011;2692;48.848;8.924;2023-10-08T15:04:21;4.97;;;2.00;;
5339;SDS011;2692;48.848;8.924;2023-10-08T15:06:47;4.67;;;2.03;;
5339;SDS011;2692;48.848;8.924;2023-10-08T15:09:12;4.20;;;2.07;;
5339;SDS011;2692;48.848;8.924;2023-10-08T15:11:46;3.40;;;1.70;;
5339;SDS011;2692;48.848;8.924;2023-10-08T15:14:12;5.00;;;2.17;;
5339;SDS011;2692;48.848;8.924;2023-10-08T15:16:37;4.13;;;2.03;;
5339;SDS011;2692;48.848;8.924;2023-10-08T15:19:04;7.37;;;2.50;;
5339;SDS011;2692;48.848;8.924;2023-10-08T15:21:30;6.43;;;2.17;;
5339;SDS011;2692;48.848;8.924;2023-10-08T15:23:58;4.83;;;1.90;;
5339;SDS011;2692;48.848;8.924;2023-10-08T15:26:31;5.70;;;2.93;;
5339;SDS011;2692;48.848;8.924;2023-10-08T15:28:57;4.80;;;2.13;;
5339;SDS011;2692;48.848;8.924;2023-10-08T15:31:22;9.27;;;2.53;;
5339;SDS011;2692;48.848;8.924;2023-10-08T15:33:47;4.97;;;2.20;;
5339;SDS011;2692;48.848;8.924;2023-10-08T15:36:13;5.80;;;2.40;;
5339;SDS011;2692;48.848;8.924;2023-10-08T15:38:38;5.20;;;2.83;;
5339;SDS011;2692;48.848;8.924;2023-10-08T15:41:04;7.20;;;2.00;;